Time;durP1;ratioP1;P1;durP2;ratioP2;P2;SDS_P1;SDS_P2;PMS_P1;PMS_P2;Temp;Humidity;BMP_temperature;BMP_pressure;BME280_temperature;BME280_humidity;BME280_pressure;Samples;Min_cycle;Max_cycle;Signal;HPM_P1;HPM_P2
2022/11/06 00:01:30;;;;;;;28.35;10.02;;;;;;;;;;5000068;28;20081;-84
2022/11/06 00:03:57;;;;;;;23.15;9.20;;;;;;;;;;5004942;28;20616;-84
2022/11/06 00:09:09;;;;;;;25.73;9.83;;;;;;;;;;5033053;28;20034;-82
2022/11/06 00:11:37;;;;;;;19.73;9.07;;;;;;;;;;5037462;28;20097;-81
2022/11/06 00:14:03;;;;;;;23.50;9.65;;;;;;;;;;5036926;28;20042;-82
2022/11/06 00:16:30;;;;;;;32.25;10.07;;;;;;;;;;5035870;28;20291;-82
2022/11/06 00:18:58;;;;;;;21.20;9.85;;;;;;;;;;5029391;28;20093;-85
2022/11/06 00:21:26;;;;;;;23.75;9.73;;;;;;;;;;5034178;28;20069;-85
2022/11/06 00:23:53;;;;;;;28.55;9.75;;;;;;;;;;5035224;28;20105;-83
2022/11/06 00:26:20;;;;;;;27.60;9.80;;;;;;;;;;5028605;28;20056;-84
2022/11/06 00:28:47;;;;;;;31.92;10.55;;;;;;;;;;5021620;28;20046;-85
2022/11/06 00:31:15;;;;;;;23.38;9.73;;;;;;;;;;5013449;28;20080;-84
2022/11/06 00:33:41;;;;;;;25.63;10.10;;;;;;;;;;5018150;28;20054;-85
2022/11/06 00:36:19;;;;;;;22.77;9.63;;;;;;;;;;5011488;28;20088;-84
2022/11/06 00:38:45;;;;;;;21.73;8.93;;;;;;;;;;5015534;28;20121;-83
2022/11/06 00:41:13;;;;;;;18.88;8.45;;;;;;;;;;5016145;28;20068;-83
2022/11/06 00:43:40;;;;;;;22.35;9.25;;;;;;;;;;5017737;28;20053;-84
2022/11/06 00:46:08;;;;;;;27.33;10.57;;;;;;;;;;5018794;28;20463;-83
2022/11/06 00:48:35;;;;;;;23.50;9.40;;;;;;;;;;5017672;28;20060;-82
2022/11/06 00:51:02;;;;;;;23.25;9.75;;;;;;;;;;5009358;28;20085;-85
2022/11/06 00:53:29;;;;;;;20.73;9.45;;;;;;;;;;5012376;28;20042;-85
2022/11/06 00:56:02;;;;;;;24.73;9.60;;;;;;;;;;5013077;28;20060;-83
2022/11/06 00:58:28;;;;;;;25.85;9.68;;;;;;;;;;5014234;28;20058;-82
2022/11/06 01:00:55;;;;;;;28.00;9.80;;;;;;;;;;5007271;28;20054;-81
2022/11/06 01:03:21;;;;;;;22.63;9.50;;;;;;;;;;4994068;28;20125;-83
2022/11/06 01:05:47;;;;;;;21.95;9.50;;;;;;;;;;4995556;28;20046;-83
2022/11/06 01:08:14;;;;;;;23.42;9.35;;;;;;;;;;5003308;28;20393;-83
2022/11/06 01:10:40;;;;;;;25.45;10.05;;;;;;;;;;4996162;28;20054;-83
2022/11/06 01:13:07;;;;;;;20.50;9.07;;;;;;;;;;4991647;28;20050;-82
2022/11/06 01:15:34;;;;;;;24.42;10.07;;;;;;;;;;4996249;28;20137;-86
2022/11/06 01:18:00;;;;;;;22.75;9.70;;;;;;;;;;4990754;28;20130;-85
2022/11/06 01:20:27;;;;;;;17.92;8.85;;;;;;;;;;4995351;28;20050;-83
2022/11/06 01:22:53;;;;;;;25.23;10.63;;;;;;;;;;4989200;28;20086;-83
2022/11/06 01:25:20;;;;;;;24.80;9.27;;;;;;;;;;4996919;28;20054;-85
2022/11/06 01:27:47;;;;;;;20.83;9.35;;;;;;;;;;4988936;28;20398;-85
2022/11/06 01:30:13;;;;;;;26.75;9.35;;;;;;;;;;4995453;28;20110;-83
2022/11/06 01:32:40;;;;;;;21.65;9.57;;;;;;;;;;4996323;28;20053;-84
2022/11/06 01:35:06;;;;;;;21.25;10.35;;;;;;;;;;4990581;28;20054;-83
2022/11/06 01:37:33;;;;;;;23.52;9.77;;;;;;;;;;4995114;28;20058;-85
2022/11/06 01:39:59;;;;;;;21.20;9.15;;;;;;;;;;4997337;28;20054;-84
2022/11/06 01:42:26;;;;;;;23.92;9.98;;;;;;;;;;4995784;28;20058;-83
2022/11/06 01:45:11;;;;;;;27.92;10.25;;;;;;;;;;4997378;28;20057;-83
2022/11/06 01:47:37;;;;;;;28.20;11.00;;;;;;;;;;4996856;28;20414;-83
2022/11/06 01:50:06;;;;;;;25.13;9.95;;;;;;;;;;4996823;28;20062;-84
2022/11/06 01:52:33;;;;;;;19.65;10.18;;;;;;;;;;4995201;28;20046;-83
2022/11/06 01:55:09;;;;;;;20.90;10.20;;;;;;;;;;4990909;28;20054;-83
2022/11/06 01:57:36;;;;;;;24.58;10.45;;;;;;;;;;4997988;28;20090;-84
2022/11/06 02:00:04;;;;;;;28.50;10.48;;;;;;;;;;4996449;28;20056;-82
2022/11/06 02:02:30;;;;;;;24.48;9.40;;;;;;;;;;4996103;28;20054;-83
2022/11/06 02:04:59;;;;;;;22.98;10.05;;;;;;;;;;5005244;28;20042;-83
2022/11/06 02:07:29;;;;;;;18.25;9.13;;;;;;;;;;5001776;28;20430;-83
2022/11/06 02:09:55;;;;;;;25.05;10.43;;;;;;;;;;5009163;28;20046;-84
2022/11/06 02:12:28;;;;;;;25.98;9.75;;;;;;;;;;4998417;28;20050;-85
2022/11/06 02:15:19;;;;;;;25.33;9.85;;;;;;;;;;4996378;28;20039;-85
2022/11/06 02:18:04;;;;;;;24.17;10.50;;;;;;;;;;5012319;28;20047;-84
2022/11/06 02:20:40;;;;;;;25.08;10.80;;;;;;;;;;5015526;28;20094;-83
2022/11/06 02:23:06;;;;;;;;;;;;;;;;;;4988891;28;20145;-83
2022/11/06 02:25:35;;;;;;;30.08;11.10;;;;;;;;;;4993800;28;20015;-83
2022/11/06 02:28:07;;;;;;;28.05;10.38;;;;;;;;;;4993923;28;20042;-83
2022/11/06 02:30:35;;;;;;;24.23;10.18;;;;;;;;;;4992031;28;20081;-83
2022/11/06 02:33:04;;;;;;;24.38;11.63;;;;;;;;;;4992824;28;20491;-84
2022/11/06 02:35:35;;;;;;;24.25;10.80;;;;;;;;;;4994973;28;20050;-83
2022/11/06 02:38:10;;;;;;;29.10;11.77;;;;;;;;;;4993170;28;20069;-85
2022/11/06 02:40:41;;;;;;;24.23;10.65;;;;;;;;;;5000371;28;20073;-85
2022/11/06 02:43:07;;;;;;;21.33;10.30;;;;;;;;;;4998812;28;20410;-83
2022/11/06 02:45:40;;;;;;;29.50;10.55;;;;;;;;;;4997766;28;20047;-84
2022/11/06 02:48:08;;;;;;;21.05;9.23;;;;;;;;;;4993835;28;20050;-84
2022/11/06 02:50:39;;;;;;;28.90;10.30;;;;;;;;;;4998623;28;20388;-83
2022/11/06 02:53:06;;;;;;;21.92;9.32;;;;;;;;;;4999553;28;20125;-85
2022/11/06 02:55:36;;;;;;;19.95;9.80;;;;;;;;;;4999020;28;20054;-85
2022/11/06 02:58:05;;;;;;;21.88;9.43;;;;;;;;;;4992585;28;20545;-83
2022/11/06 03:00:32;;;;;;;29.50;9.90;;;;;;;;;;4997917;28;20462;-82
2022/11/06 03:03:05;;;;;;;21.17;9.50;;;;;;;;;;4994346;28;20665;-83
2022/11/06 03:05:38;;;;;;;18.80;9.07;;;;;;;;;;4998304;28;20042;-83
2022/11/06 03:08:15;;;;;;;21.67;9.15;;;;;;;;;;4993824;28;20563;-83
2022/11/06 03:10:51;;;;;;;24.65;8.80;;;;;;;;;;4999356;28;20050;-83
2022/11/06 03:13:19;;;;;;;19.67;8.43;;;;;;;;;;4999466;28;20137;-85
2022/11/06 03:16:03;;;;;;;17.98;7.70;;;;;;;;;;4990991;28;20046;-83
2022/11/06 03:18:41;;;;;;;18.88;8.48;;;;;;;;;;4996005;28;20089;-81
2022/11/06 03:21:14;;;;;;;17.08;7.78;;;;;;;;;;4989413;28;20065;-83
2022/11/06 03:23:44;;;;;;;22.27;8.70;;;;;;;;;;4996827;28;20050;-85
2022/11/06 03:26:20;;;;;;;20.83;8.48;;;;;;;;;;4980930;28;20057;-83
2022/11/06 03:29:01;;;;;;;16.63;8.50;;;;;;;;;;4994617;28;20050;-83
2022/11/06 03:31:35;;;;;;;19.85;7.63;;;;;;;;;;4980796;28;20054;-85
2022/11/06 03:34:04;;;;;;;20.83;8.38;;;;;;;;;;4999309;28;20046;-82
2022/11/06 03:36:33;;;;;;;23.42;7.95;;;;;;;;;;4999951;28;20054;-82
2022/11/06 03:39:08;;;;;;;20.75;8.75;;;;;;;;;;4981744;28;20081;-83
2022/11/06 03:41:38;;;;;;;22.98;8.88;;;;;;;;;;5002842;28;20070;-81
2022/11/06 03:44:08;;;;;;;21.25;9.63;;;;;;;;;;5010058;28;20122;-82
2022/11/06 03:46:41;;;;;;;20.10;9.40;;;;;;;;;;5000039;28;20082;-84
2022/11/06 03:49:09;;;;;;;22.40;8.80;;;;;;;;;;4998692;28;20054;-83
2022/11/06 03:51:46;;;;;;;21.85;8.43;;;;;;;;;;5002496;28;20042;-84
2022/11/06 03:54:15;;;;;;;21.20;9.65;;;;;;;;;;5005984;28;20038;-81
2022/11/06 03:57:02;;;;;;;23.77;10.32;;;;;;;;;;5009510;28;20046;-82
2022/11/06 03:59:32;;;;;;;25.55;9.88;;;;;;;;;;5000479;28;20046;-82
2022/11/06 04:02:00;;;;;;;23.88;10.15;;;;;;;;;;4988899;28;20052;-81
2022/11/06 04:04:32;;;;;;;21.90;9.63;;;;;;;;;;5026116;28;20107;-82
2022/11/06 04:07:04;;;;;;;25.90;10.23;;;;;;;;;;5020787;28;20099;-82
2022/11/06 04:15:08;;;;;;;20.83;8.80;;;;;;;;;;5014356;28;20046;-83
2022/11/06 04:17:34;;;;;;;24.17;10.15;;;;;;;;;;5012422;28;20054;-84
2022/11/06 04:20:03;;;;;;;19.23;9.38;;;;;;;;;;5004269;28;20412;-83
2022/11/06 04:22:48;;;;;;;25.80;10.23;;;;;;;;;;4999632;28;20115;-84
2022/11/06 04:28:19;;;;;;;19.00;9.43;;;;;;;;;;4999778;28;20487;-84
2022/11/06 04:31:00;;;;;;;25.60;10.35;;;;;;;;;;4993188;28;20053;-84
2022/11/06 04:33:33;;;;;;;20.92;9.38;;;;;;;;;;5003059;28;20050;-85
2022/11/06 04:36:05;;;;;;;20.75;9.35;;;;;;;;;;4998694;28;20038;-85
2022/11/06 04:38:44;;;;;;;17.38;8.25;;;;;;;;;;5017515;28;20039;-81
2022/11/06 04:41:33;;;;;;;18.60;8.82;;;;;;;;;;5016181;28;20057;-83
2022/11/06 04:44:19;;;;;;;23.50;9.05;;;;;;;;;;4999074;28;20126;-82
2022/11/06 04:46:51;;;;;;;18.83;8.35;;;;;;;;;;4994063;28;20122;-83
2022/11/06 04:49:18;;;;;;;20.90;8.73;;;;;;;;;;4993881;28;20046;-82
2022/11/06 04:51:45;;;;;;;23.48;8.93;;;;;;;;;;4995761;28;20645;-83
2022/11/06 04:54:12;;;;;;;28.00;9.43;;;;;;;;;;4995682;28;20062;-81
2022/11/06 04:56:39;;;;;;;22.80;9.02;;;;;;;;;;4995422;28;20142;-82
2022/11/06 04:59:13;;;;;;;21.38;8.50;;;;;;;;;;4990991;28;20046;-82
2022/11/06 05:01:40;;;;;;;15.73;8.02;;;;;;;;;;4994493;28;20054;-82
2022/11/06 05:04:07;;;;;;;22.42;9.20;;;;;;;;;;5004755;28;20045;-81
2022/11/06 05:06:36;;;;;;;16.67;8.35;;;;;;;;;;5000579;28;20054;-83
2022/11/06 05:09:03;;;;;;;23.70;8.02;;;;;;;;;;4995366;28;20051;-81
2022/11/06 05:11:29;;;;;;;19.08;8.38;;;;;;;;;;4998102;28;20140;-81
2022/11/06 05:13:56;;;;;;;18.88;7.95;;;;;;;;;;4990952;28;20062;-82
2022/11/06 05:16:22;;;;;;;17.63;8.13;;;;;;;;;;4997946;28;20050;-84
2022/11/06 05:18:48;;;;;;;15.93;7.28;;;;;;;;;;4998226;28;20495;-84
2022/11/06 05:24:00;;;;;;;16.98;7.63;;;;;;;;;;4993839;28;20626;-83
2022/11/06 05:26:26;;;;;;;13.90;6.85;;;;;;;;;;4993078;28;20081;-83
2022/11/06 05:28:53;;;;;;;15.15;7.22;;;;;;;;;;4995089;28;20054;-83
2022/11/06 05:31:19;;;;;;;15.70;6.50;;;;;;;;;;4992944;28;20129;-83
2022/11/06 05:33:46;;;;;;;17.00;5.97;;;;;;;;;;4997320;28;20066;-85
2022/11/06 05:36:12;;;;;;;15.70;6.30;;;;;;;;;;4997206;28;20566;-84
2022/11/06 05:38:39;;;;;;;12.80;5.95;;;;;;;;;;4988847;28;20054;-84
2022/11/06 05:41:05;;;;;;;15.38;6.57;;;;;;;;;;5009702;28;20050;-81
2022/11/06 05:43:31;;;;;;;16.05;6.50;;;;;;;;;;4999660;28;20050;-83
2022/11/06 05:45:59;;;;;;;11.40;6.07;;;;;;;;;;4996590;28;20046;-84
2022/11/06 05:48:26;;;;;;;15.18;5.57;;;;;;;;;;4996585;28;20051;-83
2022/11/06 05:50:52;;;;;;;14.02;5.85;;;;;;;;;;4988390;28;20050;-84
2022/11/06 05:53:19;;;;;;;15.23;5.97;;;;;;;;;;4995728;28;20435;-84
2022/11/06 05:55:46;;;;;;;11.93;5.82;;;;;;;;;;4996413;28;20634;-83
2022/11/06 05:58:13;;;;;;;10.77;5.53;;;;;;;;;;4993273;28;20122;-83
2022/11/06 06:00:40;;;;;;;12.40;5.45;;;;;;;;;;5003877;28;20425;-83
2022/11/06 06:03:06;;;;;;;11.27;5.57;;;;;;;;;;4988766;28;20054;-82
2022/11/06 06:05:32;;;;;;;17.67;6.20;;;;;;;;;;5003765;28;20042;-83
2022/11/06 06:07:59;;;;;;;9.93;5.45;;;;;;;;;;5012807;28;20057;-83
2022/11/06 06:10:25;;;;;;;12.90;6.07;;;;;;;;;;5015938;28;20060;-84
2022/11/06 06:12:52;;;;;;;13.57;5.63;;;;;;;;;;5002851;28;20043;-83
2022/11/06 06:15:18;;;;;;;12.35;5.55;;;;;;;;;;4999074;28;20054;-83
2022/11/06 06:17:45;;;;;;;11.75;5.82;;;;;;;;;;4999469;28;20060;-82
2022/11/06 06:20:12;;;;;;;14.38;5.88;;;;;;;;;;4992485;28;20047;-80
2022/11/06 06:22:38;;;;;;;13.52;5.47;;;;;;;;;;4995555;28;20061;-80
2022/11/06 06:25:05;;;;;;;10.13;5.63;;;;;;;;;;4990807;28;20046;-82
2022/11/06 06:27:42;;;;;;;8.68;4.90;;;;;;;;;;4995753;28;20407;-82
2022/11/06 06:30:09;;;;;;;14.93;5.80;;;;;;;;;;4996900;28;20042;-81
2022/11/06 06:32:36;;;;;;;15.13;5.53;;;;;;;;;;4996441;28;20486;-81
2022/11/06 06:35:02;;;;;;;11.40;5.15;;;;;;;;;;4993339;28;20054;-80
2022/11/06 06:37:28;;;;;;;11.23;5.05;;;;;;;;;;4995917;28;20054;-81
2022/11/06 06:39:55;;;;;;;9.95;4.97;;;;;;;;;;5009186;28;20046;-81
2022/11/06 06:42:21;;;;;;;11.68;5.18;;;;;;;;;;4998761;28;20146;-82
2022/11/06 06:44:55;;;;;;;8.93;5.18;;;;;;;;;;4997920;28;20609;-81
2022/11/06 06:47:21;;;;;;;11.13;4.85;;;;;;;;;;4997595;28;20407;-79
2022/11/06 06:49:48;;;;;;;9.40;4.78;;;;;;;;;;4996571;28;20533;-79
2022/11/06 06:52:14;;;;;;;11.30;4.72;;;;;;;;;;4991925;28;20126;-83
2022/11/06 06:54:40;;;;;;;14.77;6.18;;;;;;;;;;4997206;28;20534;-82
2022/11/06 06:57:10;;;;;;;11.40;5.88;;;;;;;;;;5004698;28;20152;-81
2022/11/06 06:59:36;;;;;;;15.93;6.70;;;;;;;;;;4996071;28;20654;-81
2022/11/06 07:02:03;;;;;;;11.23;6.10;;;;;;;;;;4991591;28;20806;-82
2022/11/06 07:04:29;;;;;;;14.15;6.45;;;;;;;;;;4991660;28;20050;-81
2022/11/06 07:06:56;;;;;;;13.40;6.97;;;;;;;;;;4987290;28;20053;-81
2022/11/06 07:09:25;;;;;;;16.65;7.32;;;;;;;;;;4990211;28;20052;-82
2022/11/06 07:11:51;;;;;;;14.88;6.85;;;;;;;;;;4992841;28;20081;-83
2022/11/06 07:14:18;;;;;;;13.13;7.03;;;;;;;;;;4989649;28;20046;-82
2022/11/06 07:16:44;;;;;;;15.75;7.40;;;;;;;;;;4996822;28;20056;-82
2022/11/06 07:19:18;;;;;;;15.52;7.22;;;;;;;;;;5003320;28;20613;-82
2022/11/06 07:21:46;;;;;;;18.08;7.63;;;;;;;;;;4978991;28;20077;-82
2022/11/06 07:24:16;;;;;;;16.40;7.53;;;;;;;;;;4988148;28;20114;-82
2022/11/06 07:26:46;;;;;;;15.57;7.80;;;;;;;;;;5003197;28;20034;-80
2022/11/06 07:29:12;;;;;;;17.50;7.85;;;;;;;;;;5002821;28;20066;-81
2022/11/06 07:31:38;;;;;;;15.45;8.10;;;;;;;;;;4993751;28;20054;-82
2022/11/06 07:34:05;;;;;;;17.05;8.48;;;;;;;;;;4995115;28;20064;-83
2022/11/06 07:36:33;;;;;;;18.63;7.95;;;;;;;;;;4991574;28;20138;-82
2022/11/06 07:39:01;;;;;;;17.05;7.95;;;;;;;;;;4994490;28;20073;-82
2022/11/06 07:41:28;;;;;;;14.70;7.88;;;;;;;;;;4975136;28;20130;-82
2022/11/06 07:43:54;;;;;;;14.93;7.80;;;;;;;;;;4991151;28;20072;-79
2022/11/06 07:46:21;;;;;;;19.00;8.07;;;;;;;;;;4991974;28;20050;-81
2022/11/06 07:48:47;;;;;;;15.00;8.25;;;;;;;;;;4989247;28;20546;-84
2022/11/06 07:51:19;;;;;;;13.65;7.55;;;;;;;;;;4990597;28;20056;-81
2022/11/06 07:53:49;;;;;;;16.58;8.20;;;;;;;;;;4986620;28;20081;-81
2022/11/06 07:56:15;;;;;;;16.60;7.57;;;;;;;;;;4996063;28;20130;-83
2022/11/06 07:58:41;;;;;;;20.10;7.95;;;;;;;;;;5002654;28;20042;-82
2022/11/06 08:01:12;;;;;;;14.93;7.70;;;;;;;;;;5006618;28;20050;-82
2022/11/06 08:03:43;;;;;;;;;;;;;;;;;;5003532;28;20082;-80
2022/11/06 08:06:10;;;;;;;17.10;6.53;;;;;;;;;;5002798;28;19922;-83
2022/11/06 08:08:37;;;;;;;14.60;7.35;;;;;;;;;;4999107;28;20062;-83
2022/11/06 08:11:08;;;;;;;15.18;6.93;;;;;;;;;;5006431;28;20062;-80
2022/11/06 08:13:34;;;;;;;14.38;6.70;;;;;;;;;;5004030;28;20118;-79
2022/11/06 08:16:05;;;;;;;11.15;5.90;;;;;;;;;;4992866;28;20056;-81
2022/11/06 08:18:32;;;;;;;6.85;3.92;;;;;;;;;;4998391;28;20064;-81
2022/11/06 08:20:58;;;;;;;11.65;4.80;;;;;;;;;;4998152;28;20054;-80
2022/11/06 08:23:25;;;;;;;9.18;4.85;;;;;;;;;;5000630;28;20076;-82
2022/11/06 08:25:55;;;;;;;7.13;3.38;;;;;;;;;;4999061;28;20114;-80
2022/11/06 08:28:22;;;;;;;7.88;3.00;;;;;;;;;;4995963;28;20065;-77
2022/11/06 08:30:49;;;;;;;3.90;2.03;;;;;;;;;;4992643;28;20046;-83
2022/11/06 08:33:15;;;;;;;5.28;2.03;;;;;;;;;;4994574;28;20060;-85
2022/11/06 08:35:42;;;;;;;4.22;1.90;;;;;;;;;;4994911;28;20042;-86
2022/11/06 08:38:08;;;;;;;3.72;2.00;;;;;;;;;;5002121;28;20463;-85
2022/11/06 08:40:36;;;;;;;4.72;1.90;;;;;;;;;;5000261;28;20054;-84
2022/11/06 08:43:03;;;;;;;7.80;1.83;;;;;;;;;;4987632;28;20046;-85
2022/11/06 08:45:30;;;;;;;4.07;1.60;;;;;;;;;;4991934;28;20410;-84
2022/11/06 08:48:00;;;;;;;5.78;1.65;;;;;;;;;;4991263;28;20231;-85
2022/11/06 08:50:28;;;;;;;2.80;1.58;;;;;;;;;;4990044;28;20054;-85
2022/11/06 08:52:58;;;;;;;3.67;1.50;;;;;;;;;;4974885;28;20519;-86
2022/11/06 08:55:24;;;;;;;3.05;1.83;;;;;;;;;;4992622;28;20056;-85
2022/11/06 08:57:53;;;;;;;6.45;2.00;;;;;;;;;;4993027;28;20053;-86
2022/11/06 09:00:20;;;;;;;4.10;1.55;;;;;;;;;;4989464;28;20422;-85
2022/11/06 09:02:46;;;;;;;3.17;1.30;;;;;;;;;;4980990;28;20053;-86
2022/11/06 09:05:13;;;;;;;2.70;1.42;;;;;;;;;;5006769;28;20149;-86
2022/11/06 09:07:39;;;;;;;2.80;1.42;;;;;;;;;;4986168;28;20054;-86
2022/11/06 09:10:06;;;;;;;2.42;1.42;;;;;;;;;;5008500;28;20042;-84
2022/11/06 09:12:33;;;;;;;2.28;1.10;;;;;;;;;;5003481;28;20072;-86
2022/11/06 09:14:59;;;;;;;2.35;1.10;;;;;;;;;;5013290;28;20049;-85
2022/11/06 09:17:26;;;;;;;3.20;1.33;;;;;;;;;;5009939;28;20053;-83
2022/11/06 09:19:52;;;;;;;2.22;1.23;;;;;;;;;;4982921;28;20065;-85
2022/11/06 09:22:18;;;;;;;3.03;1.27;;;;;;;;;;4985527;28;20137;-84
2022/11/06 09:24:46;;;;;;;5.78;1.40;;;;;;;;;;4989720;28;20137;-84
2022/11/06 09:27:29;;;;;;;5.97;1.20;;;;;;;;;;4990319;28;20051;-83
2022/11/06 09:29:55;;;;;;;4.28;1.23;;;;;;;;;;4990635;28;20049;-83
2022/11/06 09:32:22;;;;;;;2.28;1.30;;;;;;;;;;4991896;28;20084;-84
2022/11/06 09:34:49;;;;;;;1.98;1.40;;;;;;;;;;4991691;28;20096;-83
2022/11/06 09:37:15;;;;;;;4.85;1.30;;;;;;;;;;4999503;28;20054;-84
2022/11/06 09:39:42;;;;;;;3.92;1.55;;;;;;;;;;5000766;28;20496;-85
2022/11/06 09:42:28;;;;;;;5.65;1.42;;;;;;;;;;4993998;28;20050;-84
2022/11/06 09:44:58;;;;;;;2.28;1.38;;;;;;;;;;4992790;28;20046;-83
2022/11/06 09:47:26;;;;;;;3.10;1.25;;;;;;;;;;4994570;28;20050;-85
2022/11/06 09:49:54;;;;;;;2.83;1.27;;;;;;;;;;4993882;28;20141;-84
2022/11/06 09:52:20;;;;;;;2.83;1.20;;;;;;;;;;4992771;28;20050;-83
2022/11/06 09:54:49;;;;;;;3.15;1.38;;;;;;;;;;4986857;28;20069;-83
2022/11/06 09:57:28;;;;;;;3.17;1.33;;;;;;;;;;5001699;28;20061;-82
2022/11/06 09:59:55;;;;;;;6.35;1.45;;;;;;;;;;4993058;28;20054;-84
2022/11/06 10:02:31;;;;;;;3.40;1.42;;;;;;;;;;4986857;28;20054;-82
2022/11/06 10:04:57;;;;;;;3.45;1.45;;;;;;;;;;4985376;28;20058;-84
2022/11/06 10:07:26;;;;;;;1.55;1.10;;;;;;;;;;5000081;28;20057;-83
2022/11/06 10:09:53;;;;;;;1.65;1.13;;;;;;;;;;4980243;28;20349;-82
2022/11/06 10:12:27;;;;;;;2.95;1.60;;;;;;;;;;4995173;28;20056;-84
2022/11/06 10:14:56;;;;;;;4.90;1.63;;;;;;;;;;4998720;28;20042;-85
2022/11/06 10:17:30;;;;;;;2.75;1.27;;;;;;;;;;5006956;28;20325;-84
2022/11/06 10:20:04;;;;;;;3.67;1.42;;;;;;;;;;5006500;28;20066;-84
2022/11/06 10:22:35;;;;;;;2.20;1.23;;;;;;;;;;4999482;28;20050;-84
2022/11/06 10:25:06;;;;;;;3.75;1.40;;;;;;;;;;4996350;28;20046;-85
2022/11/06 10:27:41;;;;;;;2.80;1.60;;;;;;;;;;5009143;28;20052;-84
2022/11/06 10:30:08;;;;;;;2.90;1.45;;;;;;;;;;4987308;28;20046;-81
2022/11/06 10:32:50;;;;;;;2.22;1.20;;;;;;;;;;4999655;28;20050;-84
2022/11/06 10:35:19;;;;;;;1.45;1.17;;;;;;;;;;4993825;28;20592;-83
2022/11/06 10:37:48;;;;;;;2.58;1.30;;;;;;;;;;4990312;28;20078;-84
2022/11/06 10:40:21;;;;;;;4.18;1.30;;;;;;;;;;5012817;28;20046;-84
2022/11/06 10:42:52;;;;;;;3.42;1.13;;;;;;;;;;4989721;28;20085;-84
2022/11/06 10:45:19;;;;;;;3.08;1.30;;;;;;;;;;5000102;28;20137;-84
2022/11/06 10:47:48;;;;;;;1.67;0.98;;;;;;;;;;5002969;28;20062;-84
2022/11/06 10:50:16;;;;;;;3.17;1.30;;;;;;;;;;5002090;28;20508;-85
2022/11/06 10:52:51;;;;;;;2.40;1.08;;;;;;;;;;4996444;28;20054;-85
2022/11/06 10:55:18;;;;;;;;;;;;;;;;;;5002532;28;20057;-84
2022/11/06 10:57:56;;;;;;;2.80;1.45;;;;;;;;;;5003312;28;19928;-85
2022/11/06 11:00:23;;;;;;;2.30;1.23;;;;;;;;;;5001502;28;20047;-84
2022/11/06 11:02:57;;;;;;;2.40;1.30;;;;;;;;;;4987166;28;20048;-85
2022/11/06 11:05:24;;;;;;;2.92;1.50;;;;;;;;;;5021787;28;20495;-85
2022/11/06 11:07:54;;;;;;;2.97;1.40;;;;;;;;;;4998714;28;20050;-88
2022/11/06 11:10:26;;;;;;;4.30;1.67;;;;;;;;;;4992844;28;20054;-85
2022/11/06 11:12:54;;;;;;;3.20;1.50;;;;;;;;;;4978734;28;20566;-84
2022/11/06 11:15:22;;;;;;;2.65;1.50;;;;;;;;;;4993696;28;20058;-84
2022/11/06 11:18:16;;;;;;;3.58;1.55;;;;;;;;;;4980756;28;20058;-84
2022/11/06 11:20:43;;;;;;;2.95;1.30;;;;;;;;;;4997836;28;20058;-85
2022/11/06 11:23:24;;;;;;;2.95;1.23;;;;;;;;;;5001876;28;20046;-83
2022/11/06 11:25:52;;;;;;;4.03;1.50;;;;;;;;;;5005098;28;20081;-83
2022/11/06 11:28:22;;;;;;;3.05;1.30;;;;;;;;;;4999522;28;20430;-82
2022/11/06 11:30:52;;;;;;;3.33;1.58;;;;;;;;;;4992443;28;20058;-81
2022/11/06 11:33:20;;;;;;;2.28;1.38;;;;;;;;;;4999348;28;20064;-82
2022/11/06 11:35:48;;;;;;;4.40;1.40;;;;;;;;;;4993968;28;20069;-83
2022/11/06 11:38:18;;;;;;;2.13;1.25;;;;;;;;;;5002831;28;20078;-84
2022/11/06 11:40:44;;;;;;;3.08;1.48;;;;;;;;;;4997491;28;20091;-83
2022/11/06 11:43:16;;;;;;;2.30;1.27;;;;;;;;;;5003502;28;20061;-85
2022/11/06 11:45:43;;;;;;;2.05;1.35;;;;;;;;;;5002280;28;20062;-85
2022/11/06 11:48:12;;;;;;;4.10;1.20;;;;;;;;;;4987801;28;20050;-81
2022/11/06 11:50:39;;;;;;;5.28;1.17;;;;;;;;;;4991964;28;20496;-83
2022/11/06 11:53:10;;;;;;;2.03;1.10;;;;;;;;;;4990351;28;20571;-83
2022/11/06 11:55:39;;;;;;;2.38;1.10;;;;;;;;;;5004922;28;20060;-83
2022/11/06 11:58:15;;;;;;;2.00;1.25;;;;;;;;;;5001616;28;20573;-83
2022/11/06 12:00:48;;;;;;;1.65;1.20;;;;;;;;;;5019457;28;20121;-82
2022/11/06 12:03:15;;;;;;;4.95;1.10;;;;;;;;;;5003220;28;20058;-84
2022/11/06 12:05:41;;;;;;;2.38;1.20;;;;;;;;;;5009420;28;20060;-83
2022/11/06 12:08:12;;;;;;;2.63;1.10;;;;;;;;;;4999269;28;20122;-82
2022/11/06 12:10:41;;;;;;;1.92;1.10;;;;;;;;;;4992983;28;20054;-82
2022/11/06 12:13:21;;;;;;;2.03;1.20;;;;;;;;;;4994790;28;20431;-82
2022/11/06 12:15:53;;;;;;;3.05;1.30;;;;;;;;;;5001583;28;20039;-82
2022/11/06 12:18:22;;;;;;;1.92;1.10;;;;;;;;;;4999958;28;20046;-82
2022/11/06 12:20:51;;;;;;;2.88;1.25;;;;;;;;;;4998157;28;20050;-82
2022/11/06 12:23:22;;;;;;;2.90;1.67;;;;;;;;;;5008054;28;20041;-82
2022/11/06 12:26:03;;;;;;;2.28;1.10;;;;;;;;;;5000537;28;20023;-82
2022/11/06 12:28:31;;;;;;;2.38;1.25;;;;;;;;;;5005761;28;20619;-82
2022/11/06 12:31:04;;;;;;;1.63;1.00;;;;;;;;;;5000047;28;20047;-84
2022/11/06 12:33:32;;;;;;;2.47;1.20;;;;;;;;;;5004820;28;20097;-81
2022/11/06 12:36:19;;;;;;;1.90;1.10;;;;;;;;;;5015691;28;20058;-82
2022/11/06 12:38:56;;;;;;;3.47;1.60;;;;;;;;;;4987040;28;20054;-83
2022/11/06 12:41:22;;;;;;;2.85;1.40;;;;;;;;;;4993549;28;20061;-82
2022/11/06 12:43:49;;;;;;;4.18;1.95;;;;;;;;;;4996301;28;20054;-82
2022/11/06 12:46:28;;;;;;;3.05;1.70;;;;;;;;;;5005020;28;20041;-80
2022/11/06 12:48:57;;;;;;;5.00;1.80;;;;;;;;;;4991176;28;20054;-82
2022/11/06 12:51:41;;;;;;;5.63;2.05;;;;;;;;;;4992529;28;20058;-82
2022/11/06 12:54:17;;;;;;;2.83;1.60;;;;;;;;;;4986841;28;20052;-80
2022/11/06 12:57:02;;;;;;;5.97;1.88;;;;;;;;;;4997819;28;20474;-79
2022/11/06 12:59:28;;;;;;;3.60;1.65;;;;;;;;;;5007608;28;20058;-82
2022/11/06 13:01:54;;;;;;;3.20;1.80;;;;;;;;;;4991939;28;20086;-81
2022/11/06 13:04:21;;;;;;;3.05;1.50;;;;;;;;;;5000317;28;20060;-83
2022/11/06 13:07:06;;;;;;;6.50;1.60;;;;;;;;;;4992015;28;20046;-83
2022/11/06 13:09:42;;;;;;;3.45;1.67;;;;;;;;;;4995112;28;20178;-82
2022/11/06 13:12:18;;;;;;;3.45;1.70;;;;;;;;;;4999699;28;20049;-83
2022/11/06 13:15:11;;;;;;;7.05;1.77;;;;;;;;;;4984882;28;20051;-85
2022/11/06 13:17:47;;;;;;;4.07;1.75;;;;;;;;;;4988318;28;20046;-81
2022/11/06 13:20:16;;;;;;;5.63;2.08;;;;;;;;;;4997926;28;20045;-80
2022/11/06 13:22:55;;;;;;;3.85;1.80;;;;;;;;;;5013686;28;20061;-81
2022/11/06 13:25:40;;;;;;;3.15;1.63;;;;;;;;;;5011660;28;20094;-80
2022/11/06 13:28:33;;;;;;;3.40;1.83;;;;;;;;;;4998884;28;20046;-83
2022/11/06 13:31:01;;;;;;;6.82;1.60;;;;;;;;;;4982054;28;20061;-85
2022/11/06 13:33:40;;;;;;;4.93;1.67;;;;;;;;;;4990770;28;20050;-84
2022/11/06 13:36:08;;;;;;;4.70;1.90;;;;;;;;;;4991847;28;20062;-82
2022/11/06 13:38:36;;;;;;;4.13;1.80;;;;;;;;;;4991411;28;20054;-81
2022/11/06 13:41:10;;;;;;;6.13;2.13;;;;;;;;;;4991264;28;20058;-83
2022/11/06 13:43:36;;;;;;;5.82;2.00;;;;;;;;;;4990379;28;20515;-84
2022/11/06 13:46:07;;;;;;;6.13;2.50;;;;;;;;;;4990884;28;20168;-84
2022/11/06 13:48:42;;;;;;;4.38;2.30;;;;;;;;;;4994207;28;20618;-84
2022/11/06 13:51:11;;;;;;;4.05;2.22;;;;;;;;;;4994731;28;20066;-83
2022/11/06 13:53:41;;;;;;;4.53;2.08;;;;;;;;;;4995009;28;20054;-83
2022/11/06 13:56:17;;;;;;;4.10;2.17;;;;;;;;;;4992360;28;20061;-84
2022/11/06 13:58:49;;;;;;;4.10;2.03;;;;;;;;;;4992930;28;20050;-81
2022/11/06 14:01:16;;;;;;;6.40;2.13;;;;;;;;;;4995029;28;20054;-82
2022/11/06 14:03:43;;;;;;;6.18;2.08;;;;;;;;;;5004745;28;20058;-83
2022/11/06 14:06:12;;;;;;;4.68;2.35;;;;;;;;;;5022235;28;20046;-79
2022/11/06 14:08:39;;;;;;;3.95;2.22;;;;;;;;;;4999735;28;20701;-82
2022/11/06 14:11:10;;;;;;;4.80;2.25;;;;;;;;;;4992336;28;20054;-79
2022/11/06 14:13:37;;;;;;;8.77;2.25;;;;;;;;;;4990034;28;20168;-81
2022/11/06 14:16:24;;;;;;;4.95;2.40;;;;;;;;;;4996174;28;20058;-86
2022/11/06 14:19:06;;;;;;;4.00;2.40;;;;;;;;;;4981662;28;20073;-86
2022/11/06 14:21:35;;;;;;;7.90;2.42;;;;;;;;;;4990575;28;20166;-84
2022/11/06 14:24:04;;;;;;;5.68;2.55;;;;;;;;;;4989012;28;20054;-84
2022/11/06 14:26:54;;;;;;;9.23;2.70;;;;;;;;;;4986642;28;20077;-85
2022/11/06 14:29:27;;;;;;;4.20;2.30;;;;;;;;;;4979600;28;20578;-83
2022/11/06 14:32:11;;;;;;;4.82;2.60;;;;;;;;;;4988924;28;20054;-84
2022/11/06 14:34:40;;;;;;;5.20;2.47;;;;;;;;;;4972273;28;20523;-85
2022/11/06 14:37:16;;;;;;;4.57;2.17;;;;;;;;;;4991544;28;20493;-86
2022/11/06 14:39:50;;;;;;;3.50;2.30;;;;;;;;;;4991396;28;20112;-84
2022/11/06 14:42:22;;;;;;;7.13;2.75;;;;;;;;;;4992971;28;20042;-86
2022/11/06 14:44:53;;;;;;;;;;;;;;;;;;5012500;28;20034;-84
2022/11/06 14:47:40;;;;;;;7.35;2.33;;;;;;;;;;4998644;28;19933;-85
2022/11/06 14:50:21;;;;;;;4.38;2.67;;;;;;;;;;4987910;28;20078;-86
2022/11/06 14:52:49;;;;;;;4.38;2.60;;;;;;;;;;4988359;28;20751;-85
2022/11/06 14:55:24;;;;;;;5.35;2.70;;;;;;;;;;4989985;28;20126;-84
2022/11/06 14:57:59;;;;;;;6.32;2.78;;;;;;;;;;4992776;28;20046;-85
2022/11/06 15:00:45;;;;;;;3.97;2.60;;;;;;;;;;4987826;28;20595;-86
2022/11/06 15:03:36;;;;;;;6.72;2.70;;;;;;;;;;4994620;28;20061;-84
2022/11/06 15:06:24;;;;;;;10.20;2.85;;;;;;;;;;4990299;28;20061;-85
2022/11/06 15:09:11;;;;;;;6.77;3.20;;;;;;;;;;4992279;28;20046;-83